| time (UTC) | temp F | wind direction | speed MPH | gust MPH | rain 1hr in | rain 24hr in | rain mn in | humidity % | barometer mb |
| 20260902165256 | 64 | 144 | 1.0 | 1.0 | 0.00 | 0.00 | 0.00 | 51 | 1007.5 |
| 20260902164750 | 64 | 121 | 1.0 | 1.0 | 0.00 | 0.00 | 0.00 | 52 | 1007.7 |
| 20260902164244 | 64 | 89 | 3.0 | 4.0 | 0.00 | 0.00 | 0.00 | 52 | 1007.5 |
| 20260902163739 | 64 | 98 | 4.0 | 4.0 | 0.00 | 0.00 | 0.00 | 52 | 1007.7 |
| 20260902163233 | 63 | 130 | 2.0 | 2.0 | 0.00 | 0.00 | 0.00 | 53 | 1007.7 |
| 20260902162732 | 64 | 129 | 1.0 | 2.0 | 0.00 | 0.00 | 0.00 | 53 | 1007.5 |
| 20260902162227 | 64 | 83 | 1.0 | 2.0 | 0.00 | 0.00 | 0.00 | 50 | 1007.5 |
| 20260902161722 | 64 | 137 | 1.0 | 2.0 | 0.00 | 0.00 | 0.00 | 51 | 1007.4 |
| 20260902161218 | 64 | 141 | 1.0 | 2.0 | 0.00 | 0.00 | 0.00 | 50 | 1007.3 |
| 20260902160714 | 62 | 126 | 0.0 | 0.0 | 0.00 | 0.00 | 0.00 | 53 | 1007.4 |
| 20260902160208 | 61 | 134 | 0.0 | 0.0 | 0.00 | 0.00 | 0.00 | 55 | 1007.3 |
| 20260902155707 | 61 | 126 | 1.0 | 2.0 | 0.00 | 0.00 | 0.00 | 55 | 1007.2 |
| 20260902155205 | 61 | 103 | 1.0 | 1.0 | 0.00 | 0.00 | 0.00 | 55 | 1007.1 |
| 20260902154701 | 60 | 84 | 2.0 | 3.0 | 0.00 | 0.00 | 0.00 | 57 | 1007.4 |
| 20260902154200 | 60 | 95 | 2.0 | 2.0 | 0.00 | 0.00 | 0.00 | 58 | 1007.3 |
| 20260902153655 | 60 | 77 | 2.0 | 2.0 | 0.00 | 0.00 | 0.00 | 58 | 1007.1 |
| 20260902153150 | 59 | 129 | 0.0 | 1.0 | 0.00 | 0.00 | 0.00 | 58 | 1007.5 |
| 20260902152646 | 59 | 309 | 1.0 | 2.0 | 0.00 | 0.00 | 0.00 | 59 | 1007.3 |
| 20260902152141 | 59 | 356 | 2.0 | 2.0 | 0.00 | 0.00 | 0.00 | 59 | 1007.3 |
| 20260902151636 | 59 | 142 | 1.0 | 1.0 | 0.00 | 0.00 | 0.00 | 58 | 1007.4 |
| 20260902151131 | 59 | 162 | 1.0 | 1.0 | 0.00 | 0.00 | 0.00 | 59 | 1007.3 |
| 20260902150626 | 59 | 129 | 2.0 | 3.0 | 0.00 | 0.00 | 0.00 | 59 | 1007.4 |
| 20260902150121 | 58 | 318 | 3.0 | 3.0 | 0.00 | 0.00 | 0.00 | 60 | 1007.7 |
| 20260902145616 | 57 | 95 | 2.0 | 2.0 | 0.00 | 0.00 | 0.00 | 62 | 1007.9 |
| 20260902145115 | 56 | 187 | 0.0 | 0.0 | 0.00 | 0.00 | 0.00 | 67 | 1007.8 |
| 20260902144613 | 57 | 115 | 1.0 | 1.0 | 0.00 | 0.00 | 0.00 | 64 | 1007.2 |
| 20260902144112 | 55 | 136 | 0.0 | 0.0 | 0.00 | 0.00 | 0.00 | 66 | 1007.3 |
| 20260902143607 | 55 | 144 | 0.0 | 0.0 | 0.00 | 0.00 | 0.00 | 68 | 1007.3 |
| 20260902143103 | 54 | 353 | 1.0 | 2.0 | 0.00 | 0.00 | 0.00 | 70 | 1007.1 |
| 20260902142558 | 54 | 151 | 1.0 | 2.0 | 0.00 | 0.00 | 0.00 | 72 | 1007.0 |
| 20260902142054 | 54 | 137 | 0.0 | 0.0 | 0.00 | 0.00 | 0.00 | 72 | 1007.3 |
| 20260902141548 | 54 | 115 | 1.0 | 1.0 | 0.00 | 0.00 | 0.00 | 72 | 1007.3 |
| 20260902141043 | 54 | 150 | 1.0 | 1.0 | 0.00 | 0.00 | 0.00 | 71 | 1007.2 |
| 20260902140538 | 54 | 170 | 4.0 | 4.0 | 0.00 | 0.00 | 0.00 | 71 | 1007.4 |
| 20260902140034 | 54 | 153 | 1.0 | 1.0 | 0.00 | 0.00 | 0.00 | 72 | 1007.3 |
| 20260902135533 | 54 | 141 | 1.0 | 1.0 | 0.00 | 0.00 | 0.00 | 72 | 1007.1 |
| 20260902135028 | 54 | 125 | 0.0 | 0.0 | 0.00 | 0.00 | 0.00 | 71 | 1007.0 |
| 20260902134523 | 54 | 144 | 0.0 | 0.0 | 0.00 | 0.00 | 0.00 | 70 | 1007.3 |
| 20260902134018 | 54 | 144 | 0.0 | 0.0 | 0.00 | 0.00 | 0.00 | 70 | 1007.3 |
| 20260902133513 | 54 | 120 | 0.0 | 0.0 | 0.00 | 0.00 | 0.00 | 70 | 1007.3 |
| 20260902133012 | 55 | 94 | 1.0 | 1.0 | 0.00 | 0.00 | 0.00 | 69 | 1007.5 |
| 20260902132508 | 55 | 146 | 0.0 | 1.0 | 0.00 | 0.00 | 0.00 | 69 | 1007.7 |
| 20260902132003 | 55 | 103 | 1.0 | 1.0 | 0.00 | 0.00 | 0.00 | 69 | 1008.0 |
| 20260902131459 | 55 | 147 | 0.0 | 0.0 | 0.00 | 0.00 | 0.00 | 69 | 1007.9 |
| 20260902130958 | 54 | 236 | 2.0 | 2.0 | 0.00 | 0.00 | 0.00 | 70 | 1008.2 |
| 20260902130454 | 53 | 129 | 2.0 | 2.0 | 0.00 | 0.00 | 0.00 | 71 | 1007.7 |
| 20260902125949 | 53 | 150 | 2.0 | 2.0 | 0.00 | 0.00 | 0.00 | 72 | 1007.5 |
| 20260902125446 | 53 | 114 | 1.0 | 1.0 | 0.00 | 0.00 | 0.00 | 72 | 1007.7 |
| 20260902124941 | 54 | 141 | 0.0 | 1.0 | 0.00 | 0.00 | 0.00 | 71 | 1008.0 |
| 20260902124437 | 54 | 162 | 1.0 | 1.0 | 0.00 | 0.00 | 0.00 | 71 | 1007.9 |
| 20260902123932 | 54 | 147 | 0.0 | 0.0 | 0.00 | 0.00 | 0.00 | 70 | 1007.8 |
| 20260902123429 | 54 | 148 | 0.0 | 0.0 | 0.00 | 0.00 | 0.00 | 70 | 1007.5 |
| 20260902122926 | 54 | 125 | 0.0 | 0.0 | 0.00 | 0.00 | 0.00 | 70 | 1007.3 |
| 20260902122423 | 54 | 73 | 1.0 | 2.0 | 0.00 | 0.00 | 0.00 | 70 | 1007.3 |
| 20260902121918 | 54 | 99 | 1.0 | 1.0 | 0.00 | 0.00 | 0.00 | 69 | 1007.7 |
| 20260902121412 | 54 | 144 | 0.0 | 0.0 | 0.00 | 0.00 | 0.00 | 70 | 1007.8 |
| 20260902120908 | 54 | 153 | 0.0 | 0.0 | 0.00 | 0.00 | 0.00 | 69 | 1007.4 |
| 20260902120404 | 54 | 145 | 1.0 | 1.0 | 0.00 | 0.00 | 0.00 | 69 | 1007.4 |
| 20260902115904 | 54 | 173 | 2.0 | 2.0 | 0.00 | 0.00 | 0.00 | 69 | 1007.4 |
| 20260902115400 | 54 | 165 | 2.0 | 2.0 | 0.00 | 0.00 | 0.00 | 69 | 1007.2 |
| 20260902114856 | 55 | 146 | 0.0 | 0.0 | 0.00 | 0.00 | 0.00 | 69 | 1007.3 |
| 20260902114351 | 55 | 157 | 0.0 | 0.0 | 0.00 | 0.00 | 0.00 | 69 | 1006.8 |
| 20260902113846 | 55 | 141 | 0.0 | 0.0 | 0.00 | 0.00 | 0.00 | 68 | 1006.9 |
| 20260902113342 | 55 | 156 | 1.0 | 1.0 | 0.00 | 0.00 | 0.00 | 67 | 1006.9 |
| 20260902112841 | 55 | 140 | 0.0 | 1.0 | 0.00 | 0.00 | 0.00 | 67 | 1007.0 |
| 20260902112338 | 55 | 150 | 2.0 | 2.0 | 0.00 | 0.00 | 0.00 | 67 | 1007.1 |
| 20260902111833 | 55 | 153 | 1.0 | 1.0 | 0.00 | 0.00 | 0.00 | 67 | 1007.1 |
| 20260902111329 | 55 | 162 | 0.0 | 0.0 | 0.00 | 0.00 | 0.00 | 67 | 1007.3 |
| 20260902110824 | 55 | 142 | 0.0 | 1.0 | 0.00 | 0.00 | 0.00 | 67 | 1007.2 |
| 20260902110320 | 56 | 126 | 1.0 | 1.0 | 0.00 | 0.00 | 0.00 | 67 | 1007.7 |
| 20260902105820 | 56 | 150 | 2.0 | 2.0 | 0.00 | 0.00 | 0.00 | 66 | 1007.3 |
| 20260902105315 | 56 | 142 | 0.0 | 0.0 | 0.00 | 0.00 | 0.00 | 66 | 1007.1 |
| 20260902104810 | 56 | 142 | 0.0 | 0.0 | 0.00 | 0.00 | 0.00 | 66 | 1007.2 |
| 20260902104306 | 56 | 141 | 0.0 | 0.0 | 0.00 | 0.00 | 0.00 | 66 | 1007.3 |
| 20260902103806 | 56 | 156 | 1.0 | 2.0 | 0.00 | 0.00 | 0.00 | 65 | 1007.5 |
| 20260902103301 | 57 | 125 | 0.0 | 0.0 | 0.00 | 0.00 | 0.00 | 65 | 1007.0 |
| 20260902102756 | 56 | 137 | 0.0 | 0.0 | 0.00 | 0.00 | 0.00 | 65 | 1007.0 |
| 20260902102254 | 56 | 62 | 1.0 | 2.0 | 0.00 | 0.00 | 0.00 | 66 | 1007.1 |
| 20260902101749 | 56 | 135 | 0.0 | 0.0 | 0.00 | 0.00 | 0.00 | 65 | 1007.3 |
| 20260902101244 | 56 | 125 | 0.0 | 0.0 | 0.00 | 0.00 | 0.00 | 65 | 1007.1 |
| 20260902100743 | 56 | 145 | 0.0 | 0.0 | 0.00 | 0.00 | 0.00 | 65 | 1007.0 |
| 20260902100237 | 56 | 131 | 0.0 | 0.0 | 0.00 | 0.00 | 0.00 | 64 | 1007.0 |
| 20260902095731 | 57 | 115 | 0.0 | 0.0 | 0.00 | 0.00 | 0.00 | 63 | 1006.7 |
| 20260902095226 | 57 | 95 | 1.0 | 1.0 | 0.00 | 0.00 | 0.00 | 63 | 1006.9 |
| 20260902094721 | 56 | 109 | 1.0 | 2.0 | 0.00 | 0.00 | 0.00 | 64 | 1007.0 |
| 20260902094217 | 55 | 357 | 1.0 | 2.0 | 0.00 | 0.00 | 0.00 | 66 | 1007.0 |
| 20260902093715 | 55 | 112 | 1.0 | 1.0 | 0.00 | 0.00 | 0.00 | 66 | 1006.9 |
| 20260902093211 | 55 | 118 | 0.0 | 0.0 | 0.00 | 0.00 | 0.00 | 65 | 1006.8 |
| 20260902092706 | 55 | 132 | 0.0 | 0.0 | 0.00 | 0.00 | 0.00 | 65 | 1007.1 |
| 20260902092201 | 55 | 115 | 0.0 | 0.0 | 0.00 | 0.00 | 0.00 | 65 | 1007.0 |
| 20260902091655 | 55 | 133 | 0.0 | 0.0 | 0.00 | 0.00 | 0.00 | 65 | 1007.0 |
| 20260902091152 | 56 | 129 | 0.0 | 0.0 | 0.00 | 0.00 | 0.00 | 63 | 1006.9 |
| 20260902090647 | 57 | 148 | 0.0 | 0.0 | 0.00 | 0.00 | 0.00 | 62 | 1007.0 |
| 20260902090147 | 58 | 132 | 0.0 | 0.0 | 0.00 | 0.00 | 0.00 | 61 | 1007.0 |
| 20260902085641 | 59 | 115 | 0.0 | 0.0 | 0.00 | 0.00 | 0.00 | 59 | 1007.1 |
| 20260902085142 | 58 | 117 | 1.0 | 2.0 | 0.00 | 0.00 | 0.00 | 59 | 1007.3 |
| 20260902084638 | 59 | 116 | 0.0 | 0.0 | 0.00 | 0.00 | 0.00 | 58 | 1007.2 |
| 20260902084134 | 60 | 310 | 1.0 | 1.0 | 0.00 | 0.00 | 0.00 | 56 | 1007.2 |
| 20260902083628 | 61 | 281 | 3.0 | 4.0 | 0.00 | 0.00 | 0.00 | 56 | 1007.0 |
| 20260902083127 | 60 | 269 | 7.0 | 10.0 | 0.00 | 0.00 | 0.00 | 56 | 1006.9 |
| 20260902082623 | 60 | 222 | 4.0 | 7.0 | 0.00 | 0.00 | 0.00 | 57 | 1006.9 |
| 20260902082120 | 60 | 131 | 0.0 | 0.0 | 0.00 | 0.00 | 0.00 | 56 | 1006.9 |
| 20260902081616 | 60 | 113 | 0.0 | 1.0 | 0.00 | 0.00 | 0.00 | 55 | 1006.9 |
| 20260902081116 | 61 | 149 | 1.0 | 1.0 | 0.00 | 0.00 | 0.00 | 55 | 1006.9 |
| 20260902080611 | 62 | 240 | 3.0 | 3.0 | 0.00 | 0.00 | 0.00 | 54 | 1006.8 |
| 20260902080108 | 62 | 209 | 3.0 | 4.0 | 0.00 | 0.00 | 0.00 | 54 | 1006.8 |
| 20260902075607 | 62 | 306 | 8.0 | 10.0 | 0.00 | 0.00 | 0.00 | 54 | 1007.0 |
| 20260902075103 | 62 | 250 | 6.0 | 7.0 | 0.00 | 0.00 | 0.00 | 52 | 1006.9 |
| 20260902074559 | 63 | 186 | 2.0 | 2.0 | 0.00 | 0.00 | 0.00 | 51 | 1007.0 |
| 20260902074054 | 62 | 209 | 3.0 | 3.0 | 0.00 | 0.00 | 0.00 | 52 | 1006.9 |
| 20260902073549 | 59 | 138 | 0.0 | 1.0 | 0.00 | 0.00 | 0.00 | 53 | 1006.9 |
| 20260902073046 | 58 | 153 | 1.0 | 1.0 | 0.00 | 0.00 | 0.00 | 54 | 1006.8 |
| 20260902072541 | 57 | 147 | 0.0 | 0.0 | 0.00 | 0.00 | 0.00 | 59 | 1006.9 |
| 20260902072038 | 57 | 151 | 0.0 | 0.0 | 0.00 | 0.00 | 0.00 | 58 | 1006.4 |
| 20260902071537 | 58 | 151 | 0.0 | 0.0 | 0.00 | 0.00 | 0.00 | 58 | 1006.6 |
| 20260902071034 | 58 | 102 | 0.0 | 0.0 | 0.00 | 0.00 | 0.00 | 58 | 1006.6 |
| 20260902070529 | 59 | 132 | 0.0 | 0.0 | 0.00 | 0.00 | 0.00 | 56 | 1006.2 |
| 20260902070023 | 59 | 141 | 0.0 | 0.0 | 0.00 | 0.00 | 0.00 | 55 | 1006.5 |
| 20260902065517 | 60 | 145 | 0.0 | 0.0 | 0.00 | 0.00 | 0.00 | 54 | 1006.6 |
| 20260902065013 | 60 | 169 | 0.0 | 0.0 | 0.00 | 0.00 | 0.00 | 54 | 1006.6 |
| 20260902064509 | 60 | 142 | 0.0 | 0.0 | 0.00 | 0.00 | 0.00 | 54 | 1006.4 |
| 20260902064004 | 60 | 140 | 1.0 | 1.0 | 0.00 | 0.00 | 0.00 | 55 | 1006.6 |
| 20260902063503 | 61 | 136 | 0.0 | 0.0 | 0.00 | 0.00 | 0.00 | 52 | 1006.6 |
| 20260902062958 | 62 | 120 | 0.0 | 0.0 | 0.00 | 0.00 | 0.00 | 52 | 1006.8 |
| 20260902062457 | 62 | 141 | 2.0 | 2.0 | 0.00 | 0.00 | 0.00 | 47 | 1006.7 |
| 20260902061952 | 61 | 148 | 0.0 | 1.0 | 0.00 | 0.00 | 0.00 | 55 | 1006.6 |
| 20260902061442 | 59 | 102 | 0.0 | 1.0 | 0.00 | 0.00 | 0.00 | 59 | 1006.2 |
| 20260902060938 | 59 | 137 | 0.0 | 0.0 | 0.00 | 0.00 | 0.00 | 59 | 1006.6 |
| 20260902060434 | 59 | 148 | 0.0 | 0.0 | 0.00 | 0.00 | 0.00 | 59 | 1006.6 |
| 20260902055930 | 59 | 133 | 0.0 | 0.0 | 0.00 | 0.00 | 0.00 | 59 | 1006.4 |
| 20260902055426 | 60 | 95 | 1.0 | 1.0 | 0.00 | 0.00 | 0.00 | 58 | 1006.4 |
| 20260902054921 | 59 | 145 | 0.0 | 0.0 | 0.00 | 0.00 | 0.00 | 58 | 1006.1 |
| 20260902054416 | 60 | 170 | 0.0 | 1.0 | 0.00 | 0.00 | 0.00 | 58 | 1006.0 |
| 20260902053911 | 60 | 162 | 0.0 | 0.0 | 0.00 | 0.00 | 0.00 | 57 | 1006.2 |
| 20260902053407 | 61 | 133 | 0.0 | 0.0 | 0.00 | 0.00 | 0.00 | 56 | 1006.2 |
| 20260902052905 | 62 | 108 | 1.0 | 1.0 | 0.00 | 0.00 | 0.00 | 55 | 1006.2 |
| 20260902052401 | 64 | 94 | 0.0 | 1.0 | 0.00 | 0.00 | 0.00 | 50 | 1006.0 |
| 20260902051855 | 67 | 154 | 2.0 | 2.0 | 0.00 | 0.00 | 0.00 | 43 | 1006.2 |
| 20260902051350 | 63 | 213 | 4.0 | 4.0 | 0.00 | 0.00 | 0.00 | 48 | 1006.1 |
| 20260902050849 | 61 | 85 | 1.0 | 1.0 | 0.00 | 0.00 | 0.00 | 55 | 1006.4 |
| 20260902050348 | 62 | 153 | 0.0 | 0.0 | 0.00 | 0.00 | 0.00 | 56 | 1006.0 |
| 20260902045843 | 61 | 184 | 2.0 | 3.0 | 0.00 | 0.00 | 0.00 | 55 | 1006.1 |
| 20260902045334 | 61 | 170 | 2.0 | 2.0 | 0.00 | 0.00 | 0.00 | 56 | 1005.7 |
| 20260902044831 | 61 | 151 | 1.0 | 1.0 | 0.00 | 0.00 | 0.00 | 57 | 1005.8 |
| 20260902044326 | 61 | 125 | 0.0 | 0.0 | 0.00 | 0.00 | 0.00 | 57 | 1005.6 |
| 20260902043827 | 61 | 147 | 0.0 | 0.0 | 0.00 | 0.00 | 0.00 | 57 | 1005.7 |
| 20260902043321 | 61 | 147 | 0.0 | 0.0 | 0.00 | 0.00 | 0.00 | 57 | 1005.5 |
| 20260902042820 | 62 | 147 | 0.0 | 0.0 | 0.00 | 0.00 | 0.00 | 56 | 1005.7 |
| 20260902042315 | 62 | 149 | 0.0 | 0.0 | 0.00 | 0.00 | 0.00 | 55 | 1005.5 |
| 20260902041810 | 63 | 149 | 0.0 | 0.0 | 0.00 | 0.00 | 0.00 | 56 | 1005.5 |
| 20260902041311 | 64 | 149 | 0.0 | 0.0 | 0.00 | 0.00 | 0.00 | 52 | 1005.4 |
| 20260902040809 | 64 | 151 | 1.0 | 1.0 | 0.00 | 0.00 | 0.00 | 51 | 1005.1 |
| 20260902040306 | 65 | 146 | 0.0 | 0.0 | 0.00 | 0.00 | 0.00 | 50 | 1005.2 |
| 20260902035804 | 65 | 159 | 0.0 | 0.0 | 0.00 | 0.00 | 0.00 | 51 | 1005.2 |
| 20260902035300 | 66 | 151 | 0.0 | 0.0 | 0.00 | 0.00 | 0.00 | 50 | 1005.1 |
| 20260902034758 | 67 | 152 | 0.0 | 0.0 | 0.00 | 0.00 | 0.00 | 49 | 1005.3 |
| 20260902034254 | 68 | 139 | 0.0 | 0.0 | 0.00 | 0.00 | 0.00 | 46 | 1004.9 |
| 20260902033751 | 69 | 128 | 0.0 | 0.0 | 0.00 | 0.00 | 0.00 | 45 | 1004.7 |
| 20260902033247 | 68 | 114 | 0.0 | 0.0 | 0.00 | 0.00 | 0.00 | 45 | 1004.8 |
| 20260902032745 | 68 | 140 | 0.0 | 0.0 | 0.00 | 0.00 | 0.00 | 46 | 1004.7 |
| 20260902032241 | 68 | 141 | 0.0 | 0.0 | 0.00 | 0.00 | 0.00 | 46 | 1004.5 |
| 20260902031740 | 69 | 131 | 0.0 | 0.0 | 0.00 | 0.00 | 0.00 | 46 | 1004.3 |
| 20260902031236 | 69 | 144 | 2.0 | 2.0 | 0.00 | 0.00 | 0.00 | 45 | 1004.3 |
| 20260902030731 | 70 | 148 | 1.0 | 1.0 | 0.00 | 0.00 | 0.00 | 44 | 1004.3 |
| 20260902030225 | 71 | 131 | 0.0 | 0.0 | 0.00 | 0.00 | 0.00 | 43 | 1004.1 |
| 20260902025724 | 72 | 128 | 0.0 | 0.0 | 0.00 | 0.00 | 0.00 | 41 | 1004.0 |
| 20260902025220 | 72 | 334 | 4.0 | 6.0 | 0.00 | 0.00 | 0.00 | 40 | 1004.0 |
| 20260902024715 | 72 | 235 | 2.0 | 2.0 | 0.00 | 0.00 | 0.00 | 41 | 1003.9 |
| 20260902024211 | 73 | 123 | 0.0 | 1.0 | 0.00 | 0.00 | 0.00 | 40 | 1003.9 |
| 20260902023706 | 73 | 44 | 3.0 | 3.0 | 0.00 | 0.00 | 0.00 | 40 | 1003.8 |
| 20260902023201 | 73 | 74 | 2.0 | 2.0 | 0.00 | 0.00 | 0.00 | 39 | 1003.5 |
| 20260902022700 | 74 | 149 | 1.0 | 2.0 | 0.00 | 0.00 | 0.00 | 39 | 1003.8 |
| 20260902022156 | 74 | 279 | 4.0 | 7.0 | 0.00 | 0.00 | 0.00 | 39 | 1003.3 |
| 20260902021652 | 75 | 227 | 5.0 | 6.0 | 0.00 | 0.00 | 0.00 | 37 | 1003.4 |
| 20260902021146 | 75 | 244 | 6.0 | 8.0 | 0.00 | 0.00 | 0.00 | 37 | 1003.7 |
| 20260902020643 | 76 | 274 | 7.0 | 9.0 | 0.00 | 0.00 | 0.00 | 37 | 1003.4 |
| 20260902020138 | 77 | 210 | 5.0 | 6.0 | 0.00 | 0.00 | 0.00 | 35 | 1003.3 |
| 20260902015633 | 78 | 221 | 2.0 | 2.0 | 0.00 | 0.00 | 0.00 | 33 | 1003.4 |
| 20260902015130 | 78 | 258 | 7.0 | 8.0 | 0.00 | 0.00 | 0.00 | 33 | 1003.3 |
| 20260902014625 | 78 | 184 | 2.0 | 2.0 | 0.00 | 0.00 | 0.00 | 32 | 1003.3 |
| 20260902014121 | 78 | 149 | 0.0 | 0.0 | 0.00 | 0.00 | 0.00 | 32 | 1003.3 |
| 20260902013620 | 78 | 131 | 0.0 | 0.0 | 0.00 | 0.00 | 0.00 | 32 | 1003.4 |
| 20260902013116 | 78 | 131 | 0.0 | 0.0 | 0.00 | 0.00 | 0.00 | 31 | 1003.4 |
| 20260902012611 | 79 | 158 | 1.0 | 2.0 | 0.00 | 0.00 | 0.00 | 31 | 1003.4 |
| 20260902012106 | 79 | 158 | 0.0 | 1.0 | 0.00 | 0.00 | 0.00 | 31 | 1003.7 |
| 20260902011602 | 79 | 146 | 4.0 | 4.0 | 0.00 | 0.00 | 0.00 | 30 | 1003.5 |
| 20260902011101 | 79 | 173 | 3.0 | 3.0 | 0.00 | 0.00 | 0.00 | 30 | 1003.7 |
| 20260902010600 | 80 | 163 | 3.0 | 4.0 | 0.00 | 0.00 | 0.00 | 30 | 1003.3 |
| 20260902010057 | 80 | 165 | 2.0 | 2.0 | 0.00 | 0.00 | 0.00 | 30 | 1003.8 |
| 20260902005554 | 80 | 158 | 5.0 | 8.0 | 0.00 | 0.00 | 0.00 | 30 | 1003.5 |
| 20260902005051 | 80 | 176 | 3.0 | 6.0 | 0.00 | 0.00 | 0.00 | 29 | 1003.4 |
| 20260902004549 | 80 | 186 | 5.0 | 7.0 | 0.00 | 0.00 | 0.00 | 29 | 1003.2 |
| 20260902004045 | 81 | 177 | 15.0 | 16.0 | 0.00 | 0.00 | 0.00 | 29 | 1003.4 |
| 20260902003540 | 81 | 169 | 5.0 | 7.0 | 0.00 | 0.00 | 0.00 | 30 | 1003.4 |
| 20260902003036 | 81 | 172 | 2.0 | 3.0 | 0.00 | 0.00 | 0.00 | 30 | 1003.5 |
| 20260902002531 | 81 | 148 | 7.0 | 8.0 | 0.00 | 0.00 | 0.00 | 30 | 1003.3 |
| 20260902002020 | 81 | 134 | 6.0 | 10.0 | 0.00 | 0.00 | 0.00 | 30 | 1003.5 |
| 20260902001515 | 81 | 185 | 11.0 | 14.0 | 0.00 | 0.00 | 0.00 | 30 | 1003.5 |
| 20260902001010 | 81 | 198 | 8.0 | 9.0 | 0.00 | 0.00 | 0.00 | 30 | 1003.4 |
| 20260902000505 | 81 | 169 | 10.0 | 13.0 | 0.00 | 0.00 | 0.00 | 30 | 1003.9 |
| 20260902000000 | 82 | 168 | 8.0 | 10.0 | 0.00 | 0.00 | 0.00 | 29 | 1003.8 |
| 20260901235454 | 82 | 163 | 8.0 | 10.0 | 0.00 | 0.00 | 0.00 | 30 | 1003.9 |
| 20260901234950 | 82 | 140 | 9.0 | 17.0 | 0.00 | 0.00 | 0.00 | 30 | 1003.9 |
| 20260901234444 | 82 | 177 | 5.0 | 6.0 | 0.00 | 0.00 | 0.00 | 30 | 1004.0 |
| 20260901233939 | 82 | 179 | 8.0 | 13.0 | 0.00 | 0.00 | 0.00 | 30 | 1004.0 |
| 20260901233434 | 82 | 147 | 3.0 | 3.0 | 0.00 | 0.00 | 0.00 | 30 | 1004.1 |
| 20260901232930 | 82 | 163 | 8.0 | 10.0 | 0.00 | 0.00 | 0.00 | 30 | 1004.2 |
| 20260901232430 | 82 | 209 | 6.0 | 8.0 | 0.00 | 0.00 | 0.00 | 30 | 1004.3 |
| 20260901231925 | 82 | 192 | 2.0 | 3.0 | 0.00 | 0.00 | 0.00 | 31 | 1004.0 |
| 20260901231422 | 82 | 186 | 6.0 | 7.0 | 0.00 | 0.00 | 0.00 | 31 | 1004.3 |
| 20260901230918 | 81 | 190 | 10.0 | 15.0 | 0.00 | 0.00 | 0.00 | 31 | 1004.2 |
| 20260901230417 | 81 | 151 | 8.0 | 14.0 | 0.00 | 0.00 | 0.00 | 33 | 1004.3 |
| 20260901225913 | 82 | 145 | 4.0 | 6.0 | 0.00 | 0.00 | 0.00 | 33 | 1004.4 |
| 20260901225407 | 81 | 194 | 11.0 | 15.0 | 0.00 | 0.00 | 0.00 | 34 | 1004.5 |
| 20260901224902 | 82 | 182 | 5.0 | 7.0 | 0.00 | 0.00 | 0.00 | 34 | 1004.5 |
| 20260901224358 | 83 | 170 | 4.0 | 6.0 | 0.00 | 0.00 | 0.00 | 34 | 1004.9 |
| 20260901223854 | 81 | 191 | 3.0 | 3.0 | 0.00 | 0.00 | 0.00 | 36 | 1004.8 |
| 20260901223349 | 81 | 148 | 1.0 | 2.0 | 0.00 | 0.00 | 0.00 | 36 | 1005.1 |
| 20260901222845 | 80 | 175 | 2.0 | 3.0 | 0.00 | 0.00 | 0.00 | 37 | 1005.1 |
| 20260901222342 | 80 | 142 | 1.0 | 1.0 | 0.00 | 0.00 | 0.00 | 37 | 1005.2 |
| 20260901221837 | 81 | 168 | 7.0 | 9.0 | 0.00 | 0.00 | 0.00 | 37 | 1005.3 |
| 20260901221332 | 80 | 155 | 5.0 | 7.0 | 0.00 | 0.00 | 0.00 | 37 | 1005.4 |
| 20260901220832 | 78 | 157 | 2.0 | 2.0 | 0.00 | 0.00 | 0.00 | 39 | 1005.5 |
| 20260901220331 | 77 | 166 | 2.0 | 3.0 | 0.00 | 0.00 | 0.00 | 39 | 1005.3 |
| 20260901215830 | 77 | 167 | 4.0 | 4.0 | 0.00 | 0.00 | 0.00 | 39 | 1005.5 |
| 20260901215329 | 77 | 146 | 3.0 | 4.0 | 0.00 | 0.00 | 0.00 | 38 | 1005.6 |
| 20260901214828 | 77 | 148 | 6.0 | 8.0 | 0.00 | 0.00 | 0.00 | 39 | 1005.6 |
| 20260901214327 | 77 | 156 | 2.0 | 4.0 | 0.00 | 0.00 | 0.00 | 39 | 1005.6 |
| 20260901213822 | 78 | 177 | 4.0 | 8.0 | 0.00 | 0.00 | 0.00 | 38 | 1005.6 |
| 20260901213322 | 77 | 209 | 8.0 | 11.0 | 0.00 | 0.00 | 0.00 | 40 | 1005.7 |
| 20260901212816 | 77 | 176 | 4.0 | 7.0 | 0.00 | 0.00 | 0.00 | 40 | 1005.8 |
| 20260901212312 | 78 | 181 | 3.0 | 4.0 | 0.00 | 0.00 | 0.00 | 39 | 1005.8 |
| 20260901211808 | 78 | 219 | 3.0 | 3.0 | 0.00 | 0.00 | 0.00 | 39 | 1005.7 |
| 20260901211304 | 77 | 150 | 2.0 | 3.0 | 0.00 | 0.00 | 0.00 | 38 | 1006.0 |
| 20260901210759 | 78 | 150 | 2.0 | 3.0 | 0.00 | 0.00 | 0.00 | 38 | 1006.0 |
| 20260901210255 | 77 | 181 | 4.0 | 7.0 | 0.00 | 0.00 | 0.00 | 38 | 1005.9 |
| 20260901205751 | 77 | 188 | 2.0 | 3.0 | 0.00 | 0.00 | 0.00 | 38 | 1006.1 |
| 20260901205250 | 77 | 154 | 4.0 | 7.0 | 0.00 | 0.00 | 0.00 | 38 | 1006.0 |
| 20260901204745 | 78 | 140 | 1.0 | 1.0 | 0.00 | 0.00 | 0.00 | 37 | 1006.1 |
| 20260901204236 | 79 | 152 | 1.0 | 2.0 | 0.00 | 0.00 | 0.00 | 37 | 1006.4 |
| 20260901203731 | 79 | 175 | 4.0 | 4.0 | 0.00 | 0.00 | 0.00 | 37 | 1006.4 |
| 20260901203231 | 79 | 149 | 0.0 | 0.0 | 0.00 | 0.00 | 0.00 | 37 | 1006.4 |
| 20260901202730 | 79 | 143 | 3.0 | 3.0 | 0.00 | 0.00 | 0.00 | 38 | 1006.5 |
| 20260901202226 | 80 | 181 | 3.0 | 3.0 | 0.00 | 0.00 | 0.00 | 36 | 1006.4 |
| 20260901201721 | 79 | 136 | 1.0 | 1.0 | 0.00 | 0.00 | 0.00 | 37 | 1006.4 |
| 20260901201220 | 80 | 165 | 5.0 | 7.0 | 0.00 | 0.00 | 0.00 | 35 | 1006.5 |
| 20260901200714 | 79 | 125 | 3.0 | 3.0 | 0.00 | 0.00 | 0.00 | 37 | 1006.5 |
| 20260901200210 | 78 | 188 | 3.0 | 3.0 | 0.00 | 0.00 | 0.00 | 38 | 1006.5 |
| 20260901195707 | 77 | 178 | 3.0 | 4.0 | 0.00 | 0.00 | 0.00 | 39 | 1006.6 |
| 20260901195201 | 77 | 144 | 1.0 | 2.0 | 0.00 | 0.00 | 0.00 | 40 | 1006.8 |
| 20260901194658 | 76 | 159 | 4.0 | 4.0 | 0.00 | 0.00 | 0.00 | 40 | 1006.6 |
| 20260901194147 | 75 | 146 | 0.0 | 1.0 | 0.00 | 0.00 | 0.00 | 42 | 1006.8 |
| 20260901193642 | 75 | 139 | 4.0 | 4.0 | 0.00 | 0.00 | 0.00 | 41 | 1006.8 |
| 20260901193137 | 75 | 189 | 7.0 | 8.0 | 0.00 | 0.00 | 0.00 | 42 | 1007.0 |
| 20260901192631 | 75 | 145 | 4.0 | 6.0 | 0.00 | 0.00 | 0.00 | 42 | 1007.2 |
| 20260901192126 | 74 | 214 | 3.0 | 6.0 | 0.00 | 0.00 | 0.00 | 43 | 1007.3 |
| 20260901191623 | 73 | 153 | 2.0 | 4.0 | 0.00 | 0.00 | 0.00 | 44 | 1007.4 |
| 20260901191119 | 73 | 196 | 2.0 | 3.0 | 0.00 | 0.00 | 0.00 | 44 | 1007.7 |
| 20260901190614 | 73 | 164 | 0.0 | 0.0 | 0.00 | 0.00 | 0.00 | 44 | 1007.7 |
| 20260901190114 | 72 | 147 | 3.0 | 4.0 | 0.00 | 0.00 | 0.00 | 44 | 1007.5 |
| 20260901185612 | 73 | 133 | 4.0 | 7.0 | 0.00 | 0.00 | 0.00 | 43 | 1007.4 |
| 20260901185111 | 73 | 147 | 1.0 | 2.0 | 0.00 | 0.00 | 0.00 | 43 | 1007.5 |
| 20260901184606 | 73 | 179 | 2.0 | 3.0 | 0.00 | 0.00 | 0.00 | 42 | 1007.5 |
| 20260901184101 | 73 | 129 | 3.0 | 6.0 | 0.00 | 0.00 | 0.00 | 42 | 1007.9 |
| 20260901183556 | 73 | 156 | 4.0 | 7.0 | 0.00 | 0.00 | 0.00 | 41 | 1008.0 |
| 20260901183052 | 72 | 190 | 9.0 | 15.0 | 0.00 | 0.00 | 0.00 | 41 | 1007.8 |
| 20260901182548 | 67 | 163 | 3.0 | 4.0 | 0.00 | 0.00 | 0.00 | 44 | 1007.9 |
| 20260901182048 | 66 | 122 | 0.0 | 1.0 | 0.00 | 0.00 | 0.00 | 42 | 1008.0 |
| 20260901181547 | 66 | 144 | 0.0 | 0.0 | 0.00 | 0.00 | 0.00 | 42 | 1007.8 |
| 20260901181046 | 65 | 151 | 0.0 | 0.0 | 0.00 | 0.00 | 0.00 | 43 | 1008.0 |
| 20260901180545 | 65 | 141 | 0.0 | 0.0 | 0.00 | 0.00 | 0.00 | 44 | 1007.7 |
| 20260901180040 | 64 | 121 | 0.0 | 0.0 | 0.00 | 0.00 | 0.00 | 42 | 1007.3 |
| 20260901175539 | 64 | 124 | 0.0 | 0.0 | 0.00 | 0.00 | 0.00 | 42 | 1007.4 |
| 20260901175034 | 64 | 96 | 0.0 | 1.0 | 0.00 | 0.00 | 0.00 | 42 | 1007.3 |
| 20260901174530 | 64 | 141 | 1.0 | 1.0 | 0.00 | 0.00 | 0.00 | 42 | 1007.4 |
| 20260901174026 | 63 | 261 | 4.0 | 4.0 | 0.00 | 0.00 | 0.00 | 43 | 1007.2 |
| 20260901173526 | 63 | 164 | 0.0 | 1.0 | 0.00 | 0.00 | 0.00 | 43 | 1007.0 |
| 20260901173022 | 63 | 91 | 0.0 | 1.0 | 0.00 | 0.00 | 0.00 | 46 | 1006.9 |
| 20260901172517 | 63 | 98 | 1.0 | 1.0 | 0.00 | 0.00 | 0.00 | 46 | 1007.3 |
| 20260901172015 | 63 | 74 | 3.0 | 3.0 | 0.00 | 0.00 | 0.00 | 42 | 1007.1 |
| 20260901171515 | 63 | 139 | 0.0 | 0.0 | 0.00 | 0.00 | 0.00 | 42 | 1007.0 |
| 20260901171014 | 62 | 135 | 0.0 | 0.0 | 0.00 | 0.00 | 0.00 | 43 | 1007.2 |
| 20260901170508 | 62 | 143 | 0.0 | 0.0 | 0.00 | 0.00 | 0.00 | 43 | 1007.3 |
| 20260901170009 | 62 | 203 | 2.0 | 2.0 | 0.00 | 0.00 | 0.00 | 44 | 1007.1 |
| 20260901165503 | 62 | 116 | 1.0 | 1.0 | 0.00 | 0.00 | 0.00 | 41 | 1006.6 |